Time;durP1;ratioP1;P1;durP2;ratioP2;P2;SDS_P1;SDS_P2;PMS_P1;PMS_P2;Temp;Humidity;BMP_temperature;BMP_pressure;BME280_temperature;BME280_humidity;BME280_pressure;Samples;Min_cycle;Max_cycle;Signal;HPM_P1;HPM_P2
2023/04/09 00:02:22;;;;;;;46.38;36.03;;;;;;;;;;5076337;28;20035;-66
2023/04/09 00:04:47;;;;;;;46.85;36.25;;;;;;;;;;5074051;28;20459;-66
2023/04/09 00:07:12;;;;;;;52.08;37.50;;;;;;;;;;5079495;28;20032;-66
2023/04/09 00:09:37;;;;;;;49.55;38.45;;;;;;;;;;5083753;28;20024;-66
2023/04/09 00:12:03;;;;;;;45.38;36.47;;;;;;;;;;5078132;28;20016;-66
2023/04/09 00:14:28;;;;;;;48.42;37.58;;;;;;;;;;5091995;28;20075;-66
2023/04/09 00:16:53;;;;;;;45.05;36.35;;;;;;;;;;5086488;28;20020;-66
2023/04/09 00:19:19;;;;;;;46.15;37.88;;;;;;;;;;5072018;28;20032;-66
2023/04/09 00:21:44;;;;;;;49.65;37.58;;;;;;;;;;5074163;28;20429;-66
2023/04/09 00:24:10;;;;;;;48.47;39.33;;;;;;;;;;5078902;28;20032;-66
2023/04/09 00:26:35;;;;;;;52.83;37.78;;;;;;;;;;5077206;28;20042;-66
2023/04/09 00:29:00;;;;;;;45.72;38.13;;;;;;;;;;5083191;28;20385;-66
2023/04/09 00:31:25;;;;;;;55.42;37.70;;;;;;;;;;5090000;28;20020;-66
2023/04/09 00:33:51;;;;;;;57.63;37.38;;;;;;;;;;5090746;28;20439;-66
2023/04/09 00:36:16;;;;;;;49.80;38.03;;;;;;;;;;5074399;28;20020;-66
2023/04/09 00:38:41;;;;;;;50.03;37.58;;;;;;;;;;5071562;28;20103;-66
2023/04/09 00:41:06;;;;;;;49.58;36.72;;;;;;;;;;5071471;28;20180;-66
2023/04/09 00:43:32;;;;;;;55.95;38.35;;;;;;;;;;5071637;28;20361;-66
2023/04/09 00:45:57;;;;;;;51.90;37.65;;;;;;;;;;5071722;28;20032;-67
2023/04/09 00:48:22;;;;;;;49.30;38.58;;;;;;;;;;5070962;28;20032;-67
2023/04/09 00:50:48;;;;;;;51.03;40.30;;;;;;;;;;5071321;28;20020;-66
2023/04/09 00:53:13;;;;;;;46.67;37.22;;;;;;;;;;5071508;28;20028;-66
2023/04/09 00:55:39;;;;;;;47.53;37.90;;;;;;;;;;5072093;28;20027;-66
2023/04/09 00:58:04;;;;;;;49.90;38.75;;;;;;;;;;5071301;28;20036;-67
2023/04/09 01:00:29;;;;;;;48.35;37.75;;;;;;;;;;5072595;28;20028;-66
2023/04/09 01:02:56;;;;;;;57.47;43.03;;;;;;;;;;5070874;28;20387;-66
2023/04/09 01:05:23;;;;;;;55.80;41.83;;;;;;;;;;5071476;28;20024;-66
2023/04/09 01:07:48;;;;;;;53.38;39.45;;;;;;;;;;5071454;28;20119;-66
2023/04/09 01:10:24;;;;;;;47.67;40.27;;;;;;;;;;5079140;28;20111;-66
2023/04/09 01:13:08;;;;;;;53.15;40.97;;;;;;;;;;5076068;28;20298;-67
2023/04/09 01:15:38;;;;;;;55.83;41.40;;;;;;;;;;5071499;28;20020;-66
2023/04/09 01:18:10;;;;;;;55.70;41.15;;;;;;;;;;5070765;28;20028;-66
2023/04/09 01:20:39;;;;;;;45.45;39.33;;;;;;;;;;5071809;28;20505;-66
2023/04/09 01:23:17;;;;;;;52.88;39.72;;;;;;;;;;5075002;28;20435;-66
2023/04/09 01:25:54;;;;;;;56.08;41.10;;;;;;;;;;5081758;28;20024;-66
2023/04/09 01:28:38;;;;;;;57.95;40.70;;;;;;;;;;5074846;28;20378;-66
2023/04/09 01:31:06;;;;;;;56.17;40.65;;;;;;;;;;5075385;28;20027;-66
2023/04/09 01:33:32;;;;;;;50.40;39.20;;;;;;;;;;5074414;28;20021;-66
2023/04/09 01:35:58;;;;;;;54.08;40.53;;;;;;;;;;5074014;28;20032;-66
2023/04/09 01:38:24;;;;;;;58.90;41.90;;;;;;;;;;5074579;28;20020;-67
2023/04/09 01:40:50;;;;;;;57.33;41.45;;;;;;;;;;5083122;28;20498;-67
2023/04/09 01:43:16;;;;;;;53.33;41.38;;;;;;;;;;5077915;28;20024;-67
2023/04/09 01:45:43;;;;;;;52.08;39.70;;;;;;;;;;5074683;28;20028;-67
2023/04/09 01:48:09;;;;;;;64.18;41.42;;;;;;;;;;5073996;28;20021;-66
2023/04/09 01:50:34;;;;;;;56.75;40.97;;;;;;;;;;5078585;28;20024;-66
2023/04/09 01:53:00;;;;;;;53.17;39.90;;;;;;;;;;5074384;28;20059;-66
2023/04/09 01:55:25;;;;;;;57.80;40.78;;;;;;;;;;5080585;28;20047;-67
2023/04/09 01:57:51;;;;;;;53.42;41.05;;;;;;;;;;5078606;28;20487;-66
2023/04/09 02:00:16;;;;;;;56.38;41.00;;;;;;;;;;5073647;28;20017;-67
2023/04/09 02:02:45;;;;;;;53.00;40.13;;;;;;;;;;5074347;28;20033;-66
2023/04/09 02:05:11;;;;;;;62.92;40.28;;;;;;;;;;5074331;28;20062;-66
2023/04/09 02:07:42;;;;;;;53.45;41.45;;;;;;;;;;5073858;28;20041;-66
2023/04/09 02:10:08;;;;;;;53.45;42.00;;;;;;;;;;5081590;28;20024;-66
2023/04/09 02:12:36;;;;;;;53.78;41.38;;;;;;;;;;5079092;28;20035;-66
2023/04/09 02:15:02;;;;;;;50.42;41.42;;;;;;;;;;5074221;28;20032;-66
2023/04/09 02:17:27;;;;;;;58.53;41.67;;;;;;;;;;5074025;28;20021;-66
2023/04/09 02:19:52;;;;;;;47.47;39.25;;;;;;;;;;5073323;28;20008;-66
2023/04/09 02:22:17;;;;;;;60.50;41.83;;;;;;;;;;5084760;28;20498;-66
2023/04/09 02:24:44;;;;;;;59.45;42.55;;;;;;;;;;5075256;28;20008;-66
2023/04/09 02:27:10;;;;;;;56.50;41.95;;;;;;;;;;5086574;28;20428;-66
2023/04/09 02:29:35;;;;;;;56.25;41.92;;;;;;;;;;5073702;28;20037;-66
2023/04/09 02:32:00;;;;;;;57.30;44.83;;;;;;;;;;5072590;28;20025;-66
2023/04/09 02:34:27;;;;;;;58.78;44.13;;;;;;;;;;5072964;28;20511;-67
2023/04/09 02:36:52;;;;;;;52.60;39.47;;;;;;;;;;5073810;28;20020;-67
2023/04/09 02:39:17;;;;;;;61.33;43.30;;;;;;;;;;5073451;28;20510;-66
2023/04/09 02:41:43;;;;;;;51.65;40.25;;;;;;;;;;5073284;28;20432;-65
2023/04/09 02:44:08;;;;;;;54.67;42.05;;;;;;;;;;5074087;28;20182;-66
2023/04/09 02:46:33;;;;;;;61.50;43.40;;;;;;;;;;5072949;28;20041;-66
2023/04/09 02:48:59;;;;;;;57.50;40.60;;;;;;;;;;5073378;28;20009;-65
2023/04/09 02:51:25;;;;;;;59.47;38.17;;;;;;;;;;5078561;28;20028;-65
2023/04/09 02:53:50;;;;;;;59.13;41.20;;;;;;;;;;5072529;28;20486;-66
2023/04/09 02:56:16;;;;;;;54.55;38.55;;;;;;;;;;5072900;28;20024;-65
2023/04/09 02:58:41;;;;;;;55.35;39.05;;;;;;;;;;5072553;28;20016;-66
2023/04/09 03:01:06;;;;;;;50.30;39.25;;;;;;;;;;5074156;28;20029;-67
2023/04/09 03:03:31;;;;;;;55.90;40.05;;;;;;;;;;5073513;28;20028;-66
2023/04/09 03:05:57;;;;;;;56.80;40.95;;;;;;;;;;5084781;28;20024;-67
2023/04/09 03:08:22;;;;;;;54.67;41.28;;;;;;;;;;5073995;28;20036;-67
2023/04/09 03:10:48;;;;;;;60.38;40.47;;;;;;;;;;5086354;28;20032;-65
2023/04/09 03:13:13;;;;;;;56.08;41.55;;;;;;;;;;5072557;28;20024;-65
2023/04/09 03:15:38;;;;;;;55.60;38.78;;;;;;;;;;5072561;28;20418;-66
2023/04/09 03:18:03;;;;;;;50.97;38.60;;;;;;;;;;5078008;28;20016;-65
2023/04/09 03:20:29;;;;;;;51.85;38.78;;;;;;;;;;5079768;28;20025;-66
2023/04/09 03:22:54;;;;;;;54.00;40.63;;;;;;;;;;5073778;28;20401;-65
2023/04/09 03:25:20;;;;;;;52.50;41.70;;;;;;;;;;5073089;28;20027;-65
2023/04/09 03:27:45;;;;;;;56.75;42.45;;;;;;;;;;5072450;28;20130;-65
2023/04/09 03:30:10;;;;;;;59.38;42.20;;;;;;;;;;5072414;28;20126;-66
2023/04/09 03:32:36;;;;;;;52.15;38.53;;;;;;;;;;5072315;28;20099;-66
2023/04/09 03:35:01;;;;;;;57.35;39.38;;;;;;;;;;5072751;28;20033;-66
2023/04/09 03:37:26;;;;;;;52.60;40.33;;;;;;;;;;5072935;28;20451;-67
2023/04/09 03:39:51;;;;;;;54.22;39.45;;;;;;;;;;5071750;28;20029;-67
2023/04/09 03:42:17;;;;;;;52.35;40.92;;;;;;;;;;5071881;28;20029;-65
2023/04/09 03:44:42;;;;;;;55.55;41.03;;;;;;;;;;5081846;28;20028;-66
2023/04/09 03:47:07;;;;;;;52.40;38.40;;;;;;;;;;5074925;28;20104;-66
2023/04/09 03:49:34;;;;;;;58.33;42.53;;;;;;;;;;5072631;28;20467;-66
2023/04/09 03:51:59;;;;;;;50.17;39.25;;;;;;;;;;5076033;28;20036;-67
2023/04/09 03:54:27;;;;;;;62.95;44.55;;;;;;;;;;5082094;28;20471;-66
2023/04/09 03:56:53;;;;;;;57.78;43.65;;;;;;;;;;5073140;28;20090;-66
2023/04/09 03:59:18;;;;;;;54.25;39.63;;;;;;;;;;5072623;28;20471;-66
2023/04/09 04:01:43;;;;;;;57.92;39.70;;;;;;;;;;5071571;28;20017;-66
2023/04/09 04:04:08;;;;;;;55.83;43.45;;;;;;;;;;5072156;28;20023;-66
2023/04/09 04:06:34;;;;;;;53.90;40.15;;;;;;;;;;5072713;28;20054;-66
2023/04/09 04:08:59;;;;;;;61.17;40.55;;;;;;;;;;5071481;28;20376;-66
2023/04/09 04:11:25;;;;;;;59.30;40.40;;;;;;;;;;5085503;28;20025;-66
2023/04/09 04:13:50;;;;;;;56.33;39.88;;;;;;;;;;5081834;28;20350;-66
2023/04/09 04:16:15;;;;;;;58.20;39.92;;;;;;;;;;5073215;28;20089;-66
2023/04/09 04:18:40;;;;;;;49.67;37.53;;;;;;;;;;5071706;28;20029;-66
2023/04/09 04:21:11;;;;;;;54.35;38.42;;;;;;;;;;5071287;28;20033;-66
2023/04/09 04:23:36;;;;;;;60.58;42.40;;;;;;;;;;5072652;28;20055;-66
2023/04/09 04:26:08;;;;;;;61.78;42.45;;;;;;;;;;5071474;28;20059;-66
2023/04/09 04:28:33;;;;;;;51.88;39.28;;;;;;;;;;5072313;28;20374;-66
2023/04/09 04:30:59;;;;;;;52.88;40.22;;;;;;;;;;5072333;28;20095;-67
2023/04/09 04:33:24;;;;;;;50.00;38.15;;;;;;;;;;5071787;28;20034;-67
2023/04/09 04:35:49;;;;;;;51.47;38.53;;;;;;;;;;5072021;28;20430;-66
2023/04/09 04:38:15;;;;;;;57.20;42.03;;;;;;;;;;5071544;28;20020;-66
2023/04/09 04:40:40;;;;;;;58.78;41.80;;;;;;;;;;5071820;28;20024;-67
2023/04/09 04:43:05;;;;;;;60.08;41.67;;;;;;;;;;5088139;28;20405;-67
2023/04/09 04:45:30;;;;;;;52.67;39.53;;;;;;;;;;5072265;28;20020;-67
2023/04/09 04:47:56;;;;;;;60.80;43.08;;;;;;;;;;5072276;28;20028;-67
2023/04/09 04:50:21;;;;;;;55.10;43.45;;;;;;;;;;5077118;28;20036;-66
2023/04/09 04:52:46;;;;;;;58.70;44.85;;;;;;;;;;5079191;28;20467;-66
2023/04/09 04:55:12;;;;;;;62.22;45.63;;;;;;;;;;5071103;28;20025;-66
2023/04/09 04:57:37;;;;;;;65.13;46.13;;;;;;;;;;5071345;28;20028;-66
2023/04/09 05:00:02;;;;;;;61.95;45.70;;;;;;;;;;5071081;28;20020;-66
2023/04/09 05:02:27;;;;;;;62.00;45.92;;;;;;;;;;5071977;28;20036;-66
2023/04/09 05:04:53;;;;;;;56.90;42.90;;;;;;;;;;5071397;28;20416;-67
2023/04/09 05:07:18;;;;;;;55.03;41.10;;;;;;;;;;5071215;28;20029;-67
2023/04/09 05:09:43;;;;;;;55.75;41.58;;;;;;;;;;5088118;28;20051;-66
2023/04/09 05:12:08;;;;;;;59.88;42.67;;;;;;;;;;5080092;28;20032;-67
2023/04/09 05:14:34;;;;;;;56.65;41.47;;;;;;;;;;5075509;28;20406;-67
2023/04/09 05:16:59;;;;;;;54.88;42.70;;;;;;;;;;5079688;28;20103;-67
2023/04/09 05:19:24;;;;;;;50.85;38.33;;;;;;;;;;5070437;28;20028;-66
2023/04/09 05:21:49;;;;;;;52.67;39.38;;;;;;;;;;5061082;28;20093;-66
2023/04/09 05:24:15;;;;;;;61.30;39.85;;;;;;;;;;5075235;28;20047;-66
2023/04/09 05:26:40;;;;;;;51.30;39.85;;;;;;;;;;5070971;28;20033;-66
2023/04/09 05:29:05;;;;;;;55.35;39.55;;;;;;;;;;5070902;28;20720;-66
2023/04/09 05:31:30;;;;;;;49.75;38.17;;;;;;;;;;5071482;28;20024;-66
2023/04/09 05:33:55;;;;;;;50.45;37.45;;;;;;;;;;5070677;28;20099;-66
2023/04/09 05:36:21;;;;;;;49.58;37.40;;;;;;;;;;5078587;28;20489;-66
2023/04/09 05:38:46;;;;;;;54.60;40.05;;;;;;;;;;5076288;28;20074;-66
2023/04/09 05:41:12;;;;;;;57.92;43.28;;;;;;;;;;5070480;28;20086;-66
2023/04/09 05:43:37;;;;;;;54.28;41.25;;;;;;;;;;5070881;28;20111;-66
2023/04/09 05:46:03;;;;;;;58.88;42.30;;;;;;;;;;5088159;28;20020;-66
2023/04/09 05:48:28;;;;;;;67.65;47.10;;;;;;;;;;5079160;28;20423;-66
2023/04/09 05:50:54;;;;;;;61.55;43.65;;;;;;;;;;5069831;28;20024;-66
2023/04/09 05:53:19;;;;;;;61.95;48.38;;;;;;;;;;5070717;28;20471;-66
2023/04/09 05:55:45;;;;;;;61.05;47.97;;;;;;;;;;5070737;28;20104;-66
2023/04/09 05:58:11;;;;;;;70.28;50.92;;;;;;;;;;5070435;28;20028;-66
2023/04/09 06:00:36;;;;;;;72.60;49.80;;;;;;;;;;5080674;28;20020;-66
2023/04/09 06:03:01;;;;;;;71.55;51.13;;;;;;;;;;5071157;28;20032;-66
2023/04/09 06:05:27;;;;;;;69.72;50.70;;;;;;;;;;5073482;28;20122;-66
2023/04/09 06:07:52;;;;;;;73.20;50.53;;;;;;;;;;5066936;28;20382;-66
2023/04/09 06:10:17;;;;;;;70.07;51.72;;;;;;;;;;5073796;28;20025;-66
2023/04/09 06:12:43;;;;;;;75.18;52.83;;;;;;;;;;5073354;28;20035;-66
2023/04/09 06:15:08;;;;;;;76.15;53.53;;;;;;;;;;5072630;28;20021;-66
2023/04/09 06:17:33;;;;;;;73.05;54.38;;;;;;;;;;5073527;28;20467;-68
2023/04/09 06:19:59;;;;;;;74.15;52.67;;;;;;;;;;5073363;28;20486;-66
2023/04/09 06:22:24;;;;;;;67.97;54.03;;;;;;;;;;5072807;28;20111;-66
2023/04/09 06:24:49;;;;;;;76.35;53.05;;;;;;;;;;5072982;28;20060;-66
2023/04/09 06:27:15;;;;;;;65.43;51.70;;;;;;;;;;5071963;28;20037;-66
2023/04/09 06:29:40;;;;;;;74.65;53.50;;;;;;;;;;5071805;28;20008;-66
2023/04/09 06:32:05;;;;;;;73.05;53.40;;;;;;;;;;5074448;28;20086;-66
2023/04/09 06:34:30;;;;;;;66.53;50.63;;;;;;;;;;5073481;28;20103;-66
2023/04/09 06:36:56;;;;;;;72.72;51.60;;;;;;;;;;5084298;28;20370;-66
2023/04/09 06:39:21;;;;;;;67.82;50.72;;;;;;;;;;5075524;28;20017;-66
2023/04/09 06:41:47;;;;;;;68.07;49.67;;;;;;;;;;5073418;28;20031;-66
2023/04/09 06:44:12;;;;;;;70.50;51.15;;;;;;;;;;5077411;28;20533;-66
2023/04/09 06:46:38;;;;;;;76.82;51.95;;;;;;;;;;5082208;28;20028;-66
2023/04/09 06:49:03;;;;;;;61.40;49.22;;;;;;;;;;5073309;28;20032;-66
2023/04/09 06:51:28;;;;;;;65.47;51.15;;;;;;;;;;5072282;28;20024;-66
2023/04/09 06:53:53;;;;;;;72.05;53.78;;;;;;;;;;5073518;28;20028;-66
2023/04/09 06:56:19;;;;;;;70.03;50.75;;;;;;;;;;5073784;28;20052;-66
2023/04/09 06:58:44;;;;;;;69.07;52.70;;;;;;;;;;5077792;28;20020;-66
2023/04/09 07:01:09;;;;;;;64.72;50.67;;;;;;;;;;5073260;28;20181;-66
2023/04/09 07:03:35;;;;;;;68.20;51.45;;;;;;;;;;5072544;28;20494;-66
2023/04/09 07:06:00;;;;;;;66.50;51.75;;;;;;;;;;5073034;28;20036;-66
2023/04/09 07:08:25;;;;;;;66.75;49.63;;;;;;;;;;5073583;28;20031;-66
2023/04/09 07:10:50;;;;;;;63.90;50.78;;;;;;;;;;5086019;28;20111;-66
2023/04/09 07:13:16;;;;;;;70.45;50.38;;;;;;;;;;5071890;28;20028;-66
2023/04/09 07:15:41;;;;;;;64.90;50.15;;;;;;;;;;5072380;28;20415;-66
2023/04/09 07:18:07;;;;;;;67.57;48.70;;;;;;;;;;5072672;28;20107;-66
2023/04/09 07:20:33;;;;;;;63.72;48.53;;;;;;;;;;5074360;28;20032;-66
2023/04/09 07:22:58;;;;;;;64.53;48.50;;;;;;;;;;5072508;28;20031;-65
2023/04/09 07:25:23;;;;;;;59.15;46.85;;;;;;;;;;5074213;28;20031;-65
2023/04/09 07:27:49;;;;;;;61.97;46.38;;;;;;;;;;5075570;28;20035;-65
2023/04/09 07:30:14;;;;;;;58.95;45.70;;;;;;;;;;5071907;28;20033;-65
2023/04/09 07:32:40;;;;;;;53.83;44.17;;;;;;;;;;5074209;28;20013;-65
2023/04/09 07:35:05;;;;;;;52.45;44.00;;;;;;;;;;5072770;28;20024;-65
2023/04/09 07:37:31;;;;;;;62.38;45.75;;;;;;;;;;5072459;28;20028;-65
2023/04/09 07:39:56;;;;;;;54.85;42.85;;;;;;;;;;5072835;28;20410;-65
2023/04/09 07:42:21;;;;;;;49.58;40.97;;;;;;;;;;5077996;28;20028;-66
2023/04/09 07:44:47;;;;;;;51.45;40.75;;;;;;;;;;5078119;28;20024;-65
2023/04/09 07:47:12;;;;;;;51.13;40.20;;;;;;;;;;5072229;28;20036;-65
2023/04/09 07:49:38;;;;;;;57.50;40.63;;;;;;;;;;5072420;28;20028;-65
2023/04/09 07:52:04;;;;;;;50.25;36.92;;;;;;;;;;5072574;28;20024;-65
2023/04/09 07:54:30;;;;;;;48.67;39.63;;;;;;;;;;5072508;28;20020;-65
2023/04/09 07:56:56;;;;;;;45.95;38.78;;;;;;;;;;5072555;28;20060;-65
2023/04/09 07:59:21;;;;;;;49.42;37.88;;;;;;;;;;5071960;28;20360;-66
2023/04/09 08:01:47;;;;;;;44.42;36.80;;;;;;;;;;5081802;28;20103;-65
2023/04/09 08:04:12;;;;;;;51.45;36.53;;;;;;;;;;5070188;28;20558;-65
2023/04/09 08:06:38;;;;;;;45.38;34.50;;;;;;;;;;5070014;28;20043;-65
2023/04/09 08:09:03;;;;;;;47.45;35.30;;;;;;;;;;5070897;28;20352;-65
2023/04/09 08:11:28;;;;;;;45.28;32.80;;;;;;;;;;5085489;28;20055;-65
2023/04/09 08:13:54;;;;;;;44.95;35.10;;;;;;;;;;5072039;28;20031;-65
2023/04/09 08:16:23;;;;;;;40.53;30.80;;;;;;;;;;5072036;28;20020;-65
2023/04/09 08:18:51;;;;;;;43.20;31.45;;;;;;;;;;5072064;28;20028;-65
2023/04/09 08:21:16;;;;;;;38.42;30.10;;;;;;;;;;5081804;28;20036;-65
2023/04/09 08:23:42;;;;;;;35.58;28.85;;;;;;;;;;5081538;28;20570;-65
2023/04/09 08:26:07;;;;;;;31.92;26.60;;;;;;;;;;5070803;28;20068;-65
2023/04/09 08:28:32;;;;;;;29.20;24.70;;;;;;;;;;5062880;28;20107;-66
2023/04/09 08:30:57;;;;;;;36.60;26.73;;;;;;;;;;5072919;28;21186;-65
2023/04/09 08:33:23;;;;;;;32.05;26.73;;;;;;;;;;5081020;28;20051;-65
2023/04/09 08:35:48;;;;;;;35.70;30.02;;;;;;;;;;5074643;28;20035;-66
2023/04/09 08:38:14;;;;;;;36.05;25.65;;;;;;;;;;5071910;28;20534;-65
2023/04/09 08:40:40;;;;;;;34.70;26.45;;;;;;;;;;5061755;28;20035;-65
2023/04/09 08:43:06;;;;;;;35.00;27.00;;;;;;;;;;5071473;28;20033;-65
2023/04/09 08:45:31;;;;;;;27.27;23.48;;;;;;;;;;5072010;28;20024;-65
2023/04/09 08:47:59;;;;;;;27.80;22.58;;;;;;;;;;5075206;28;20054;-65
2023/04/09 08:50:32;;;;;;;31.33;24.17;;;;;;;;;;5066972;28;20072;-65
2023/04/09 08:52:58;;;;;;;28.63;23.20;;;;;;;;;;5071673;28;20020;-65
2023/04/09 08:55:23;;;;;;;26.90;22.30;;;;;;;;;;5070865;28;20089;-65
2023/04/09 08:57:48;;;;;;;28.98;21.77;;;;;;;;;;5074835;28;20463;-65
2023/04/09 09:00:14;;;;;;;28.92;23.73;;;;;;;;;;5074869;28;20024;-65
2023/04/09 09:02:59;;;;;;;29.88;23.10;;;;;;;;;;5071474;28;20540;-65
2023/04/09 09:05:37;;;;;;;28.92;21.08;;;;;;;;;;5069640;28;20024;-66
2023/04/09 09:08:03;;;;;;;33.08;22.52;;;;;;;;;;5071054;28;20387;-65
2023/04/09 09:10:54;;;;;;;25.63;22.25;;;;;;;;;;5070996;28;20032;-66
2023/04/09 09:13:26;;;;;;;30.13;20.98;;;;;;;;;;5066514;28;20048;-66
2023/04/09 09:15:55;;;;;;;26.92;20.80;;;;;;;;;;5076664;28;20027;-65
2023/04/09 09:18:40;;;;;;;27.23;22.77;;;;;;;;;;5072482;28;20037;-65
2023/04/09 09:21:10;;;;;;;27.98;21.35;;;;;;;;;;5070453;28;20117;-66
2023/04/09 09:23:35;;;;;;;24.35;20.00;;;;;;;;;;5071648;28;20024;-65
2023/04/09 09:26:09;;;;;;;27.92;21.48;;;;;;;;;;5070884;28;20047;-65
2023/04/09 09:28:35;;;;;;;21.95;18.50;;;;;;;;;;5071214;28;20024;-65
2023/04/09 09:31:06;;;;;;;23.60;19.75;;;;;;;;;;5081773;28;20499;-65
2023/04/09 09:33:32;;;;;;;20.67;13.30;;;;;;;;;;5070755;28;20024;-64
2023/04/09 09:35:57;;;;;;;18.88;13.65;;;;;;;;;;5082915;28;20043;-65
2023/04/09 09:38:22;;;;;;;18.23;13.75;;;;;;;;;;5071151;28;20024;-64
2023/04/09 09:40:48;;;;;;;18.37;12.07;;;;;;;;;;5071125;28;20074;-65
2023/04/09 09:43:13;;;;;;;12.40;10.30;;;;;;;;;;5074453;28;20263;-65
2023/04/09 09:45:39;;;;;;;14.80;9.40;;;;;;;;;;5073688;28;20024;-64
2023/04/09 09:48:05;;;;;;;12.75;9.43;;;;;;;;;;5074545;28;20028;-64
2023/04/09 09:50:31;;;;;;;10.73;9.40;;;;;;;;;;5079872;28;20024;-63
2023/04/09 09:53:03;;;;;;;14.07;11.00;;;;;;;;;;5072787;28;20020;-64
2023/04/09 09:55:30;;;;;;;18.38;10.38;;;;;;;;;;5072447;28;20051;-63
2023/04/09 09:57:55;;;;;;;11.70;10.07;;;;;;;;;;5078715;28;20063;-64
2023/04/09 10:00:24;;;;;;;13.95;9.32;;;;;;;;;;5068186;28;20052;-64
2023/04/09 10:03:06;;;;;;;12.75;7.82;;;;;;;;;;5072487;28;20039;-63
2023/04/09 10:05:34;;;;;;;8.63;6.45;;;;;;;;;;5076928;28;20391;-62
2023/04/09 10:07:59;;;;;;;16.17;12.60;;;;;;;;;;5082574;28;20020;-63
2023/04/09 10:10:26;;;;;;;17.63;12.07;;;;;;;;;;5075910;28;20044;-64
2023/04/09 10:12:51;;;;;;;9.95;7.82;;;;;;;;;;5074604;28;20039;-64
2023/04/09 10:15:17;;;;;;;11.88;7.40;;;;;;;;;;5076520;28;20036;-64
2023/04/09 10:17:42;;;;;;;16.33;7.20;;;;;;;;;;5072919;28;20043;-65
2023/04/09 10:20:21;;;;;;;11.82;9.63;;;;;;;;;;5071722;28;20031;-65
2023/04/09 10:22:48;;;;;;;18.65;11.60;;;;;;;;;;5073106;28;20028;-65
2023/04/09 10:25:14;;;;;;;11.73;10.52;;;;;;;;;;5070820;28;20034;-65
2023/04/09 10:27:41;;;;;;;12.27;9.77;;;;;;;;;;5071473;28;20024;-63
2023/04/09 10:30:09;;;;;;;14.70;10.85;;;;;;;;;;5081496;28;20017;-64
2023/04/09 10:32:35;;;;;;;15.98;10.45;;;;;;;;;;5071095;28;20024;-63
2023/04/09 10:35:01;;;;;;;16.45;10.73;;;;;;;;;;5072029;28;20030;-61
2023/04/09 10:37:27;;;;;;;21.15;11.15;;;;;;;;;;5068751;28;20021;-61
2023/04/09 10:39:53;;;;;;;15.52;11.98;;;;;;;;;;5071952;28;20058;-60
2023/04/09 10:42:20;;;;;;;19.10;12.00;;;;;;;;;;5072902;28;20024;-60
2023/04/09 10:45:02;;;;;;;12.65;11.35;;;;;;;;;;5079355;28;20047;-60
2023/04/09 10:47:48;;;;;;;15.07;11.15;;;;;;;;;;5072038;28;20038;-60
2023/04/09 10:50:24;;;;;;;18.05;11.82;;;;;;;;;;5068847;28;20033;-62
2023/04/09 10:52:58;;;;;;;11.38;9.35;;;;;;;;;;5068035;28;20459;-62
2023/04/09 10:55:29;;;;;;;11.27;8.77;;;;;;;;;;5070847;28;20020;-60
2023/04/09 10:57:57;;;;;;;14.70;10.30;;;;;;;;;;5072194;28;20155;-61
2023/04/09 11:00:22;;;;;;;11.23;8.93;;;;;;;;;;5071333;28;20055;-62
2023/04/09 11:02:58;;;;;;;10.50;9.13;;;;;;;;;;5069136;28;20032;-61
2023/04/09 11:05:26;;;;;;;11.10;8.93;;;;;;;;;;5071578;28;20031;-61
2023/04/09 11:07:57;;;;;;;11.05;8.93;;;;;;;;;;5069264;28;20042;-61
2023/04/09 11:10:23;;;;;;;12.38;9.93;;;;;;;;;;5078422;28;20047;-63
2023/04/09 11:12:48;;;;;;;10.35;8.75;;;;;;;;;;5085799;28;20025;-63
2023/04/09 11:15:20;;;;;;;11.43;9.45;;;;;;;;;;5066636;28;20460;-63
2023/04/09 11:17:46;;;;;;;12.27;8.45;;;;;;;;;;5070371;28;20479;-63
2023/04/09 11:20:12;;;;;;;11.27;9.38;;;;;;;;;;5070571;28;20074;-61
2023/04/09 11:22:37;;;;;;;12.07;8.75;;;;;;;;;;5070341;28;20032;-61
2023/04/09 11:25:03;;;;;;;11.20;8.32;;;;;;;;;;5068136;28;20016;-61
2023/04/09 11:27:28;;;;;;;11.65;9.63;;;;;;;;;;5071554;28;20032;-61
2023/04/09 11:29:56;;;;;;;16.05;10.52;;;;;;;;;;5065984;28;20433;-62
2023/04/09 11:32:21;;;;;;;11.52;8.77;;;;;;;;;;5057239;28;20036;-63
2023/04/09 11:34:47;;;;;;;11.52;8.18;;;;;;;;;;5069442;28;20077;-62
2023/04/09 11:37:16;;;;;;;12.13;8.15;;;;;;;;;;5066310;28;20039;-62
2023/04/09 11:39:44;;;;;;;9.32;6.57;;;;;;;;;;5069913;28;20020;-62
2023/04/09 11:42:13;;;;;;;8.88;7.43;;;;;;;;;;5070088;28;20030;-63
2023/04/09 11:44:38;;;;;;;12.88;8.90;;;;;;;;;;5064453;28;20021;-62
2023/04/09 11:47:03;;;;;;;10.82;8.90;;;;;;;;;;5055520;28;20040;-62
2023/04/09 11:49:29;;;;;;;9.32;8.00;;;;;;;;;;5070093;28;20060;-63
2023/04/09 11:51:54;;;;;;;11.48;8.85;;;;;;;;;;5068902;28;20109;-63
2023/04/09 11:54:19;;;;;;;11.25;8.82;;;;;;;;;;5070547;28;20050;-63
2023/04/09 11:56:45;;;;;;;9.70;7.90;;;;;;;;;;5072201;28;20037;-63
2023/04/09 11:59:13;;;;;;;12.27;9.68;;;;;;;;;;5082661;28;20043;-63
2023/04/09 12:01:38;;;;;;;12.02;8.80;;;;;;;;;;5069167;28;20033;-63
2023/04/09 12:04:04;;;;;;;10.70;7.20;;;;;;;;;;5064484;28;20070;-63
2023/04/09 12:06:30;;;;;;;9.23;8.27;;;;;;;;;;5068933;28;20112;-63
2023/04/09 12:08:57;;;;;;;10.32;7.45;;;;;;;;;;5081168;28;20558;-63
2023/04/09 12:11:30;;;;;;;9.57;7.28;;;;;;;;;;5084870;28;20030;-63
2023/04/09 12:13:59;;;;;;;9.93;7.80;;;;;;;;;;5077036;28;20036;-63
2023/04/09 12:16:24;;;;;;;9.18;7.63;;;;;;;;;;5069222;28;20062;-63
2023/04/09 12:18:54;;;;;;;11.13;7.70;;;;;;;;;;5069234;28;20462;-63
2023/04/09 12:21:22;;;;;;;9.93;7.95;;;;;;;;;;5070551;28;20028;-63
2023/04/09 12:23:47;;;;;;;9.45;8.20;;;;;;;;;;5068331;28;20129;-63
2023/04/09 12:26:13;;;;;;;14.13;8.32;;;;;;;;;;5069347;28;20427;-63
2023/04/09 12:28:38;;;;;;;14.15;9.60;;;;;;;;;;5069897;28;20078;-63
2023/04/09 12:31:04;;;;;;;10.00;8.23;;;;;;;;;;5069493;28;20699;-64
2023/04/09 12:33:31;;;;;;;14.32;8.43;;;;;;;;;;5069200;28;20039;-63
2023/04/09 12:35:57;;;;;;;11.55;7.85;;;;;;;;;;5078372;28;20386;-63
2023/04/09 12:38:22;;;;;;;9.88;8.10;;;;;;;;;;5069087;28;20475;-63
2023/04/09 12:40:47;;;;;;;11.40;9.13;;;;;;;;;;5068819;28;20112;-63
2023/04/09 12:43:12;;;;;;;9.95;7.43;;;;;;;;;;5070135;28;20025;-64
2023/04/09 12:45:38;;;;;;;9.87;8.20;;;;;;;;;;5069621;28;20375;-63
2023/04/09 12:48:03;;;;;;;11.40;8.10;;;;;;;;;;5070154;28;20283;-63
2023/04/09 12:50:28;;;;;;;7.65;6.78;;;;;;;;;;5068258;28;20490;-63
2023/04/09 12:52:54;;;;;;;9.90;7.65;;;;;;;;;;5066710;28;20082;-64
2023/04/09 12:55:19;;;;;;;11.07;8.27;;;;;;;;;;5065608;28;20461;-62
2023/04/09 12:57:45;;;;;;;11.60;7.63;;;;;;;;;;5064286;28;20040;-63
2023/04/09 13:00:11;;;;;;;10.20;8.23;;;;;;;;;;5034495;28;20028;-61
2023/04/09 13:02:36;;;;;;;12.23;8.25;;;;;;;;;;5045619;28;20031;-61
2023/04/09 13:05:03;;;;;;;12.27;9.05;;;;;;;;;;5040837;28;20024;-63
2023/04/09 13:07:28;;;;;;;10.18;8.95;;;;;;;;;;5054782;28;20028;-61
2023/04/09 13:09:54;;;;;;;18.75;10.60;;;;;;;;;;5042934;28;20073;-63
2023/04/09 13:12:20;;;;;;;11.48;8.82;;;;;;;;;;5049456;28;20124;-63
2023/04/09 13:14:46;;;;;;;11.65;9.07;;;;;;;;;;5040612;28;20036;-62
2023/04/09 13:17:11;;;;;;;11.07;8.80;;;;;;;;;;5057392;28;20024;-62
2023/04/09 13:19:36;;;;;;;12.77;8.75;;;;;;;;;;5075914;28;20013;-62
2023/04/09 13:22:02;;;;;;;12.38;7.50;;;;;;;;;;5067913;28;20020;-63
2023/04/09 13:24:27;;;;;;;11.38;8.68;;;;;;;;;;5065424;28;20479;-64
2023/04/09 13:26:53;;;;;;;10.40;8.23;;;;;;;;;;5072913;28;20028;-64
2023/04/09 13:29:18;;;;;;;10.85;8.40;;;;;;;;;;5075115;28;20025;-64
2023/04/09 13:31:43;;;;;;;11.70;8.38;;;;;;;;;;5051494;28;20025;-63
2023/04/09 13:34:08;;;;;;;8.70;7.13;;;;;;;;;;5044896;28;20035;-64
2023/04/09 13:36:34;;;;;;;11.68;9.48;;;;;;;;;;5062861;28;20539;-63
2023/04/09 13:39:08;;;;;;;13.45;9.85;;;;;;;;;;5058891;28;20020;-63
2023/04/09 13:41:33;;;;;;;12.43;8.95;;;;;;;;;;5048371;28;20089;-64
2023/04/09 13:43:59;;;;;;;14.63;10.02;;;;;;;;;;5057532;28;20020;-62
2023/04/09 13:46:25;;;;;;;9.90;8.43;;;;;;;;;;5041775;28;20546;-64
2023/04/09 13:48:50;;;;;;;13.77;8.93;;;;;;;;;;5067674;28;20036;-63
2023/04/09 13:51:15;;;;;;;11.77;8.13;;;;;;;;;;5052853;28;20378;-63
2023/04/09 13:53:41;;;;;;;10.23;8.57;;;;;;;;;;5051510;28;20020;-63
2023/04/09 13:56:06;;;;;;;14.00;9.98;;;;;;;;;;5062236;28;20027;-63
2023/04/09 13:58:31;;;;;;;10.88;8.23;;;;;;;;;;5061626;28;20391;-63
2023/04/09 14:00:56;;;;;;;11.77;9.20;;;;;;;;;;5056586;28;20036;-65
2023/04/09 14:03:22;;;;;;;10.88;8.52;;;;;;;;;;5057056;28;20270;-62
2023/04/09 14:05:48;;;;;;;10.37;8.23;;;;;;;;;;5067437;28;20021;-66
2023/04/09 14:08:13;;;;;;;10.98;7.70;;;;;;;;;;5058264;28;20278;-63
2023/04/09 14:10:38;;;;;;;9.43;8.27;;;;;;;;;;5066074;28;20024;-63
2023/04/09 14:13:06;;;;;;;9.63;7.40;;;;;;;;;;5063747;28;20032;-63
2023/04/09 14:15:32;;;;;;;8.80;7.90;;;;;;;;;;5061818;28;20041;-62
2023/04/09 14:17:57;;;;;;;11.35;8.43;;;;;;;;;;5059802;28;21166;-65